createdAt,value
2023-02-26T00:01:51.372Z,18.00
2023-02-26T00:04:19.746Z,18.00
2023-02-26T00:06:55.544Z,18.00
2023-02-26T00:09:25.224Z,18.00
2023-02-26T00:11:54.358Z,18.00
2023-02-26T00:14:23.088Z,18.00
2023-02-26T00:17:00.215Z,18.00
2023-02-26T00:19:28.769Z,18.00
2023-02-26T00:21:59.187Z,18.00
2023-02-26T00:24:27.411Z,18.00
2023-02-26T00:26:55.719Z,18.00
2023-02-26T00:29:24.652Z,18.00
2023-02-26T00:31:53.720Z,18.00
2023-02-26T00:34:22.512Z,18.00
2023-02-26T00:37:04.806Z,18.00
2023-02-26T00:39:42.416Z,18.00
2023-02-26T00:42:11.499Z,18.00
2023-02-26T00:44:40.926Z,18.00
2023-02-26T00:47:19.087Z,18.00
2023-02-26T00:50:01.233Z,18.00
2023-02-26T00:52:37.840Z,18.00
2023-02-26T00:55:06.785Z,17.90
2023-02-26T00:57:35.011Z,18.00
2023-02-26T01:00:05.985Z,17.90
2023-02-26T01:02:35.666Z,17.90
2023-02-26T01:05:05.214Z,17.90
2023-02-26T01:07:43.773Z,17.90
2023-02-26T01:10:13.638Z,17.90
2023-02-26T01:12:43.249Z,17.90
2023-02-26T01:15:12.689Z,17.90
2023-02-26T01:17:47.892Z,17.90
2023-02-26T01:20:20.403Z,17.90
2023-02-26T01:22:56.176Z,17.90
2023-02-26T01:25:28.670Z,17.80
2023-02-26T01:27:57.949Z,17.90
2023-02-26T01:30:27.610Z,17.90
2023-02-26T01:33:05.092Z,17.80
2023-02-26T01:35:47.507Z,17.80
2023-02-26T01:38:28.412Z,17.80
2023-02-26T01:41:25.812Z,17.90
2023-02-26T01:44:00.759Z,17.80
2023-02-26T01:46:37.942Z,17.80
2023-02-26T01:49:14.330Z,17.80
2023-02-26T01:51:46.199Z,17.80
2023-02-26T01:54:17.391Z,17.80
2023-02-26T01:56:46.972Z,17.80
2023-02-26T01:59:18.167Z,17.80
2023-02-26T02:01:46.441Z,17.80
2023-02-26T02:04:17.120Z,17.80
2023-02-26T02:06:45.925Z,17.70
2023-02-26T02:09:15.466Z,17.70
2023-02-26T02:12:06.463Z,17.70
2023-02-26T02:14:47.868Z,17.70
2023-02-26T02:17:22.532Z,17.70
2023-02-26T02:20:34.075Z,17.70
2023-02-26T02:23:13.662Z,17.70
2023-02-26T02:26:28.436Z,17.70
2023-02-26T02:29:32.858Z,17.70
2023-02-26T02:32:09.038Z,17.70
2023-02-26T02:34:42.806Z,17.70
2023-02-26T02:37:19.230Z,17.70
2023-02-26T02:39:50.552Z,17.70
2023-02-26T02:42:27.170Z,17.70
2023-02-26T02:45:10.879Z,17.70
2023-02-26T02:47:45.930Z,17.60
2023-02-26T02:50:21.449Z,17.60
2023-02-26T02:52:55.626Z,17.70
2023-02-26T02:55:28.379Z,17.60
2023-02-26T02:58:01.874Z,17.60
2023-02-26T03:00:34.931Z,17.70
2023-02-26T03:03:14.521Z,17.60
2023-02-26T03:05:42.983Z,17.60
2023-02-26T03:08:15.171Z,17.60
2023-02-26T03:10:43.559Z,17.60
2023-02-26T03:13:18.526Z,17.60
2023-02-26T03:16:04.748Z,17.60
2023-02-26T03:18:50.706Z,17.60
2023-02-26T03:21:27.629Z,17.60
2023-02-26T03:24:03.435Z,17.60
2023-02-26T03:26:36.085Z,17.60
2023-02-26T03:29:11.885Z,17.60
2023-02-26T03:31:52.083Z,17.60
2023-02-26T03:34:28.671Z,17.60
2023-02-26T03:37:02.352Z,17.60
2023-02-26T03:39:35.763Z,17.50
2023-02-26T03:42:09.368Z,17.60
2023-02-26T03:44:45.466Z,17.60
2023-02-26T03:47:16.962Z,17.60
2023-02-26T03:49:51.049Z,17.60
2023-02-26T03:52:20.134Z,17.60
2023-02-26T03:54:56.307Z,17.50
2023-02-26T03:57:25.778Z,17.50
2023-02-26T03:59:54.271Z,17.50
2023-02-26T04:02:28.366Z,17.50
2023-02-26T04:05:07.042Z,17.50
2023-02-26T04:07:35.432Z,17.50
2023-02-26T04:10:04.237Z,17.50
2023-02-26T04:12:33.614Z,17.50
2023-02-26T04:15:01.901Z,17.50
2023-02-26T04:17:30.542Z,17.50
2023-02-26T04:20:00.010Z,17.50
2023-02-26T04:22:28.302Z,17.50
2023-02-26T04:24:56.420Z,17.50
2023-02-26T04:27:24.577Z,17.50
2023-02-26T04:29:52.717Z,17.50
2023-02-26T04:32:20.793Z,17.50
2023-02-26T04:34:48.893Z,17.50
2023-02-26T04:37:18.350Z,17.50
2023-02-26T04:39:46.504Z,17.50
2023-02-26T04:42:14.759Z,17.50
2023-02-26T04:44:42.927Z,17.50
2023-02-26T04:47:11.043Z,17.50
2023-02-26T04:49:39.668Z,17.50
2023-02-26T04:52:07.804Z,17.50
2023-02-26T04:54:37.849Z,17.50
2023-02-26T04:57:06.096Z,17.40
2023-02-26T04:59:34.307Z,17.40
2023-02-26T05:02:03.244Z,17.40
2023-02-26T05:04:31.631Z,17.40
2023-02-26T05:06:59.752Z,17.40
2023-02-26T05:09:28.147Z,17.40
2023-02-26T05:11:57.582Z,17.40
2023-02-26T05:14:25.719Z,17.40
2023-02-26T05:16:53.842Z,17.40
2023-02-26T05:19:22.000Z,17.40
2023-02-26T05:21:50.206Z,17.40
2023-02-26T05:24:18.566Z,17.40
2023-02-26T05:26:46.791Z,17.40
2023-02-26T05:29:16.320Z,17.40
2023-02-26T05:31:44.582Z,17.40
2023-02-26T05:34:12.783Z,17.30
2023-02-26T05:36:40.910Z,17.40
2023-02-26T05:39:10.324Z,17.40
2023-02-26T05:41:38.403Z,17.40
2023-02-26T05:44:07.925Z,17.40
2023-02-26T05:46:37.510Z,17.40
2023-02-26T05:49:05.641Z,17.40
2023-02-26T05:51:33.712Z,17.40
2023-02-26T05:54:01.873Z,17.40
2023-02-26T05:56:29.942Z,17.40
2023-02-26T05:58:58.047Z,17.40
2023-02-26T06:01:26.131Z,17.40
2023-02-26T06:03:55.628Z,17.40
2023-02-26T06:06:25.783Z,17.30
2023-02-26T06:08:54.072Z,17.30
2023-02-26T06:11:22.193Z,17.40
2023-02-26T06:13:50.775Z,17.30
2023-02-26T06:16:20.501Z,17.30
2023-02-26T06:18:48.664Z,17.30
2023-02-26T06:21:19.059Z,17.30
2023-02-26T06:23:47.210Z,17.30
2023-02-26T06:26:15.399Z,17.30
2023-02-26T06:28:43.521Z,17.30
2023-02-26T06:31:11.846Z,17.30
2023-02-26T06:33:39.985Z,17.30
2023-02-26T06:36:08.768Z,17.30
2023-02-26T06:38:38.245Z,17.30
2023-02-26T06:41:06.502Z,17.30
2023-02-26T06:43:34.586Z,17.30
2023-02-26T06:46:02.765Z,17.30
2023-02-26T06:48:30.949Z,17.30
2023-02-26T06:50:59.072Z,17.30
2023-02-26T06:53:27.295Z,17.30
2023-02-26T06:55:56.877Z,17.30
2023-02-26T06:58:25.178Z,17.30
2023-02-26T07:00:53.456Z,17.30
2023-02-26T07:03:21.620Z,17.20
2023-02-26T07:05:49.903Z,17.20
2023-02-26T07:08:18.038Z,17.20
2023-02-26T07:10:49.286Z,17.20
2023-02-26T07:13:19.446Z,17.20
2023-02-26T07:15:47.536Z,17.20
2023-02-26T07:18:15.673Z,17.20
2023-02-26T07:20:45.137Z,17.20
2023-02-26T07:23:13.404Z,17.20
2023-02-26T07:25:41.511Z,17.20
2023-02-26T07:28:09.725Z,17.20
2023-02-26T07:30:42.183Z,17.20
2023-02-26T07:33:13.229Z,17.20
2023-02-26T07:35:42.033Z,17.20
2023-02-26T07:38:10.140Z,17.20
2023-02-26T07:40:38.232Z,17.30
2023-02-26T07:43:06.649Z,17.30
2023-02-26T07:45:34.852Z,17.30
2023-02-26T07:48:04.553Z,17.30
2023-02-26T07:50:33.655Z,17.30
2023-02-26T07:53:01.829Z,17.40
2023-02-26T07:55:30.209Z,17.40
2023-02-26T07:57:58.341Z,17.40
2023-02-26T08:00:26.955Z,17.50
2023-02-26T08:02:55.086Z,17.50
2023-02-26T08:05:24.662Z,17.50
2023-02-26T08:07:52.919Z,17.50
2023-02-26T08:10:21.264Z,17.50
2023-02-26T08:12:49.349Z,17.50
2023-02-26T08:15:17.488Z,17.60
2023-02-26T08:17:45.656Z,17.60
2023-02-26T08:20:15.732Z,17.60
2023-02-26T08:22:45.221Z,17.70
2023-02-26T08:25:14.035Z,17.60
2023-02-26T08:27:42.231Z,17.70
2023-02-26T08:30:12.590Z,17.70
2023-02-26T08:32:42.416Z,17.70
2023-02-26T08:35:11.371Z,17.70
2023-02-26T08:37:39.783Z,17.70
2023-02-26T08:40:15.052Z,17.70
2023-02-26T08:42:43.353Z,17.80
2023-02-26T08:45:12.617Z,17.80
2023-02-26T08:47:55.657Z,17.80
2023-02-26T08:50:25.069Z,17.80
2023-02-26T08:52:53.640Z,17.80
2023-02-26T08:55:23.924Z,17.80
2023-02-26T08:57:52.038Z,17.80
2023-02-26T09:00:21.286Z,17.90
2023-02-26T09:02:49.495Z,17.80
2023-02-26T09:05:18.064Z,17.90
2023-02-26T09:07:46.742Z,17.90
2023-02-26T09:10:16.289Z,17.90
2023-02-26T09:12:46.755Z,18.00
2023-02-26T09:15:15.478Z,18.00
2023-02-26T09:17:44.212Z,18.00
2023-02-26T09:20:14.485Z,18.00
2023-02-26T09:22:43.375Z,18.10
2023-02-26T09:25:12.194Z,18.10
2023-02-26T09:27:40.385Z,18.10
2023-02-26T09:30:12.458Z,18.10
2023-02-26T09:32:40.804Z,18.10
2023-02-26T09:35:10.013Z,18.20
2023-02-26T09:37:38.342Z,18.20
2023-02-26T09:40:08.654Z,18.20
2023-02-26T09:42:55.707Z,18.20
2023-02-26T09:45:29.019Z,18.20
2023-02-26T09:47:59.261Z,18.20
2023-02-26T09:50:35.382Z,18.30
2023-02-26T09:53:12.966Z,18.30
2023-02-26T09:55:45.009Z,18.30
2023-02-26T09:58:19.971Z,18.40
2023-02-26T10:01:00.170Z,18.40
2023-02-26T10:03:35.100Z,18.40
2023-02-26T10:06:27.665Z,18.40
2023-02-26T10:09:31.925Z,18.50
2023-02-26T10:12:10.584Z,18.40
2023-02-26T10:14:44.234Z,18.50
2023-02-26T10:17:24.385Z,18.50
2023-02-26T10:19:59.063Z,18.60
2023-02-26T10:22:37.465Z,18.60
2023-02-26T10:25:12.474Z,18.60
2023-02-26T10:27:51.434Z,18.70
2023-02-26T10:30:31.563Z,18.60
2023-02-26T10:33:10.198Z,18.60
2023-02-26T10:35:48.752Z,18.60
2023-02-26T10:38:21.827Z,18.60
2023-02-26T10:40:55.758Z,18.60
2023-02-26T10:43:29.325Z,18.60
2023-02-26T10:46:16.496Z,18.60
2023-02-26T10:49:03.646Z,18.60
2023-02-26T10:51:37.951Z,18.70
2023-02-26T10:54:17.960Z,18.70
2023-02-26T10:56:46.134Z,18.70
2023-02-26T10:59:16.633Z,18.70
2023-02-26T11:01:45.416Z,18.70
2023-02-26T11:04:18.461Z,18.70
2023-02-26T11:06:52.116Z,18.70
2023-02-26T11:09:25.057Z,18.70
2023-02-26T11:11:56.892Z,18.80
2023-02-26T11:14:29.318Z,18.70
2023-02-26T11:17:03.499Z,18.80
2023-02-26T11:19:37.854Z,18.70
2023-02-26T11:22:09.767Z,18.70
2023-02-26T11:24:41.539Z,18.80
2023-02-26T11:27:17.205Z,18.80
2023-02-26T11:29:50.684Z,18.80
2023-02-26T11:32:23.266Z,18.80
2023-02-26T11:34:55.937Z,18.80
2023-02-26T11:37:29.407Z,18.80
2023-02-26T11:40:00.568Z,18.80
2023-02-26T11:42:29.502Z,18.80
2023-02-26T11:44:59.732Z,18.80
2023-02-26T11:47:32.234Z,18.80
2023-02-26T11:50:12.247Z,18.80
2023-02-26T11:52:44.394Z,18.90
2023-02-26T11:55:22.651Z,18.80
2023-02-26T11:57:55.065Z,18.80
2023-02-26T12:00:38.608Z,18.90
2023-02-26T12:03:20.735Z,18.90
2023-02-26T12:05:50.649Z,18.90
2023-02-26T12:08:26.770Z,18.90
2023-02-26T12:11:09.478Z,18.90
2023-02-26T12:13:46.943Z,18.90
2023-02-26T12:16:26.803Z,18.90
2023-02-26T12:19:07.973Z,18.90
2023-02-26T12:22:08.177Z,18.80
2023-02-26T12:25:05.612Z,18.80
2023-02-26T12:27:55.520Z,18.80
2023-02-26T12:30:59.149Z,18.80
2023-02-26T12:33:42.920Z,18.80
2023-02-26T12:36:31.682Z,18.90
2023-02-26T12:39:22.094Z,18.80
2023-02-26T12:42:07.272Z,18.80
2023-02-26T12:45:04.053Z,18.90
2023-02-26T12:47:55.865Z,18.90
2023-02-26T12:50:38.559Z,18.90
2023-02-26T12:53:50.326Z,18.90
2023-02-26T12:56:49.522Z,18.90
2023-02-26T12:59:39.737Z,18.90
2023-02-26T13:03:07.979Z,18.90
2023-02-26T13:06:13.212Z,18.90
2023-02-26T13:08:50.217Z,18.80
2023-02-26T13:11:29.843Z,18.90
2023-02-26T13:14:19.742Z,18.80
2023-02-26T13:16:57.119Z,18.80
2023-02-26T13:19:36.608Z,18.80
2023-02-26T13:22:16.239Z,18.80
2023-02-26T13:24:51.458Z,18.80
2023-02-26T13:27:25.442Z,18.80
2023-02-26T13:30:07.524Z,18.80
2023-02-26T13:32:37.527Z,18.80
2023-02-26T13:35:10.849Z,18.80
2023-02-26T13:37:43.190Z,18.80
2023-02-26T13:40:35.617Z,18.80
2023-02-26T13:43:27.530Z,18.80
2023-02-26T13:46:09.723Z,18.80
2023-02-26T13:48:47.138Z,18.80
2023-02-26T13:51:30.427Z,18.80
2023-02-26T13:54:02.236Z,18.80
2023-02-26T13:56:55.640Z,18.80
2023-02-26T13:59:54.975Z,18.80
2023-02-26T14:02:49.229Z,18.80
2023-02-26T14:05:37.717Z,18.80
2023-02-26T14:08:28.671Z,18.80
2023-02-26T14:11:04.809Z,18.80
2023-02-26T14:13:37.298Z,18.80
2023-02-26T14:16:14.799Z,18.80
2023-02-26T14:18:51.780Z,18.80
2023-02-26T14:21:40.793Z,18.80
2023-02-26T14:24:20.093Z,18.80
2023-02-26T14:26:51.958Z,18.80
2023-02-26T14:29:30.741Z,18.80
2023-02-26T14:32:24.289Z,18.80
2023-02-26T14:34:57.700Z,18.80
2023-02-26T14:37:28.511Z,18.80
2023-02-26T14:40:07.005Z,18.80
2023-02-26T14:42:39.396Z,18.80
2023-02-26T14:45:23.460Z,18.80
2023-02-26T14:47:53.577Z,18.80
2023-02-26T14:50:24.415Z,18.80
2023-02-26T14:53:41.168Z,18.80
2023-02-26T14:56:19.186Z,18.80
2023-02-26T14:59:25.735Z,18.80
2023-02-26T15:02:03.259Z,18.80
2023-02-26T15:05:03.615Z,18.80
2023-02-26T15:07:54.724Z,18.80
2023-02-26T15:10:46.619Z,18.90
2023-02-26T15:13:45.518Z,18.80
2023-02-26T15:16:27.725Z,18.80
2023-02-26T15:19:15.518Z,18.80
2023-02-26T15:22:03.562Z,18.80
2023-02-26T15:24:32.739Z,18.80
2023-02-26T15:27:04.492Z,18.90
2023-02-26T15:29:37.190Z,18.90
2023-02-26T15:32:16.944Z,18.80
2023-02-26T15:34:48.707Z,18.80
2023-02-26T15:37:26.379Z,18.80
2023-02-26T15:39:55.122Z,18.80
2023-02-26T15:42:29.783Z,18.80
2023-02-26T15:45:01.910Z,18.80
2023-02-26T15:47:31.258Z,18.90
2023-02-26T15:50:00.022Z,18.90
2023-02-26T15:52:30.751Z,18.90
2023-02-26T15:55:01.852Z,18.90
2023-02-26T15:57:30.809Z,18.90
2023-02-26T16:00:08.138Z,18.90
2023-02-26T16:02:37.606Z,19.00
2023-02-26T16:05:07.119Z,19.00
2023-02-26T16:07:36.699Z,19.00
2023-02-26T16:10:09.465Z,19.00
2023-02-26T16:12:43.698Z,19.00
2023-02-26T16:15:18.741Z,19.00
2023-02-26T16:17:51.660Z,19.00
2023-02-26T16:20:24.797Z,19.00
2023-02-26T16:22:59.800Z,19.00
2023-02-26T16:25:36.556Z,19.00
2023-02-26T16:28:07.832Z,19.00
2023-02-26T16:30:39.093Z,19.00
2023-02-26T16:33:14.757Z,19.00
2023-02-26T16:35:47.513Z,19.00
2023-02-26T16:38:26.430Z,18.90
2023-02-26T16:41:00.797Z,18.90
2023-02-26T16:43:39.076Z,18.80
2023-02-26T16:46:07.766Z,18.80
2023-02-26T16:48:43.839Z,18.80
2023-02-26T16:51:15.852Z,18.80
2023-02-26T16:53:49.349Z,18.80
2023-02-26T16:56:20.802Z,18.70
2023-02-26T16:58:55.808Z,18.70
2023-02-26T17:01:24.641Z,18.70
2023-02-26T17:03:59.782Z,18.70
2023-02-26T17:06:31.285Z,18.70
2023-02-26T17:09:02.948Z,18.60
2023-02-26T17:11:35.478Z,18.60
2023-02-26T17:14:19.094Z,18.60
2023-02-26T17:16:47.883Z,18.60
2023-02-26T17:19:16.368Z,18.60
2023-02-26T17:21:47.909Z,18.60
2023-02-26T17:24:22.164Z,18.60
2023-02-26T17:26:50.587Z,18.60
2023-02-26T17:29:23.076Z,18.60
2023-02-26T17:31:52.542Z,18.60
2023-02-26T17:34:22.343Z,18.60
2023-02-26T17:36:50.975Z,18.70
2023-02-26T17:39:20.499Z,18.60
2023-02-26T17:41:49.088Z,18.60
2023-02-26T17:44:17.245Z,18.70
2023-02-26T17:46:45.654Z,18.60
2023-02-26T17:49:14.272Z,18.70
2023-02-26T17:51:42.432Z,18.70
2023-02-26T17:54:10.707Z,18.70
2023-02-26T17:56:42.156Z,18.70
2023-02-26T17:59:13.043Z,18.70
2023-02-26T18:01:41.484Z,18.70
2023-02-26T18:04:10.132Z,18.70
2023-02-26T18:06:38.969Z,18.70
2023-02-26T18:09:07.766Z,18.70
2023-02-26T18:11:35.934Z,18.80
2023-02-26T18:14:06.076Z,18.80
2023-02-26T18:16:39.156Z,18.70
2023-02-26T18:19:09.335Z,18.80
2023-02-26T18:21:37.664Z,18.80
2023-02-26T18:24:07.034Z,18.80
2023-02-26T18:26:35.571Z,18.80
2023-02-26T18:29:05.188Z,18.80
2023-02-26T18:31:35.237Z,18.80
2023-02-26T18:34:04.498Z,18.80
2023-02-26T18:36:37.947Z,18.80
2023-02-26T18:39:09.534Z,18.80
2023-02-26T18:41:37.917Z,18.80
2023-02-26T18:44:07.511Z,18.80
2023-02-26T18:46:40.142Z,18.80
2023-02-26T18:49:09.586Z,18.80
2023-02-26T18:51:37.864Z,18.80
2023-02-26T18:54:06.258Z,18.70
2023-02-26T18:56:34.440Z,18.80
2023-02-26T18:59:02.757Z,18.80
2023-02-26T19:01:32.636Z,18.70
2023-02-26T19:04:00.872Z,18.70
2023-02-26T19:06:29.375Z,18.70
2023-02-26T19:09:02.575Z,18.70
2023-02-26T19:11:31.008Z,18.70
2023-02-26T19:13:59.361Z,18.70
2023-02-26T19:16:28.604Z,18.70
2023-02-26T19:18:59.934Z,18.60
2023-02-26T19:21:28.874Z,18.60
2023-02-26T19:23:57.163Z,18.60
2023-02-26T19:26:25.387Z,18.60
2023-02-26T19:28:53.800Z,18.60
2023-02-26T19:31:22.225Z,18.60
2023-02-26T19:33:50.547Z,18.60
2023-02-26T19:36:21.890Z,18.60
2023-02-26T19:38:50.596Z,18.60
2023-02-26T19:41:20.628Z,18.50
2023-02-26T19:43:49.329Z,18.50
2023-02-26T19:46:17.741Z,18.60
2023-02-26T19:48:46.042Z,18.50
2023-02-26T19:51:14.328Z,18.50
2023-02-26T19:53:44.290Z,18.50
2023-02-26T19:56:12.617Z,18.50
2023-02-26T19:58:41.342Z,18.50
2023-02-26T20:01:09.688Z,18.50
2023-02-26T20:03:37.970Z,18.40
2023-02-26T20:06:08.449Z,18.40
2023-02-26T20:08:36.792Z,18.40
2023-02-26T20:11:06.840Z,18.40
2023-02-26T20:13:36.206Z,18.40
2023-02-26T20:16:07.565Z,18.40
2023-02-26T20:18:36.584Z,18.40
2023-02-26T20:21:08.178Z,18.40
2023-02-26T20:23:38.074Z,18.40
2023-02-26T20:26:11.383Z,18.40
2023-02-26T20:28:40.731Z,18.30
2023-02-26T20:31:09.621Z,18.40
2023-02-26T20:33:39.444Z,18.40
2023-02-26T20:36:09.906Z,18.30
2023-02-26T20:38:39.019Z,18.40
2023-02-26T20:41:08.707Z,18.40
2023-02-26T20:43:37.122Z,18.40
2023-02-26T20:46:05.938Z,18.30
2023-02-26T20:48:34.687Z,18.30
2023-02-26T20:51:06.323Z,18.30
2023-02-26T20:53:35.511Z,18.30
2023-02-26T20:56:03.680Z,18.30
2023-02-26T20:58:33.542Z,18.30
2023-02-26T21:01:01.825Z,18.30
2023-02-26T21:03:30.190Z,18.30
2023-02-26T21:05:58.505Z,18.30
2023-02-26T21:08:26.797Z,18.40
2023-02-26T21:10:55.092Z,18.40
2023-02-26T21:13:23.362Z,18.40
2023-02-26T21:15:53.222Z,18.30
2023-02-26T21:18:21.844Z,18.30
2023-02-26T21:20:50.795Z,18.30
2023-02-26T21:23:19.222Z,18.30
2023-02-26T21:25:47.449Z,18.30
2023-02-26T21:28:15.812Z,18.30
2023-02-26T21:30:44.012Z,18.30
2023-02-26T21:33:13.768Z,18.30
2023-02-26T21:35:42.039Z,18.30
2023-02-26T21:38:10.511Z,18.30
2023-02-26T21:40:39.641Z,18.30
2023-02-26T21:43:09.051Z,18.20
2023-02-26T21:45:37.374Z,18.20
2023-02-26T21:48:06.055Z,18.30
2023-02-26T21:50:35.846Z,18.30
2023-02-26T21:53:04.260Z,18.30
2023-02-26T21:55:32.575Z,18.30
2023-02-26T21:58:00.730Z,18.20
2023-02-26T22:00:29.365Z,18.20
2023-02-26T22:02:57.619Z,18.20
2023-02-26T22:05:25.825Z,18.20
2023-02-26T22:07:55.620Z,18.20
2023-02-26T22:10:24.007Z,18.20
2023-02-26T22:12:52.216Z,18.20
2023-02-26T22:15:20.799Z,18.20
2023-02-26T22:17:49.016Z,18.20
2023-02-26T22:20:17.821Z,18.20
2023-02-26T22:22:46.074Z,18.20
2023-02-26T22:25:15.661Z,18.20
2023-02-26T22:27:44.065Z,18.20
2023-02-26T22:30:13.850Z,18.20
2023-02-26T22:32:43.802Z,18.20
2023-02-26T22:35:13.872Z,18.20
2023-02-26T22:37:42.737Z,18.10
2023-02-26T22:40:13.326Z,18.10
2023-02-26T22:42:44.610Z,18.10
2023-02-26T22:45:17.014Z,18.10
2023-02-26T22:47:45.726Z,18.10
2023-02-26T22:50:14.718Z,18.10
2023-02-26T22:52:43.192Z,18.10
2023-02-26T22:55:13.162Z,18.10
2023-02-26T22:57:43.232Z,18.00
2023-02-26T23:00:15.910Z,18.00
2023-02-26T23:02:44.218Z,18.10
2023-02-26T23:05:13.293Z,18.00
2023-02-26T23:07:42.041Z,18.00
2023-02-26T23:10:14.844Z,18.00
2023-02-26T23:12:44.540Z,18.00
2023-02-26T23:15:13.499Z,18.00
2023-02-26T23:17:41.778Z,18.00
2023-02-26T23:20:14.894Z,18.00
2023-02-26T23:22:44.266Z,18.00
2023-02-26T23:25:13.142Z,18.00
2023-02-26T23:27:43.158Z,18.00
2023-02-26T23:30:13.071Z,18.00
2023-02-26T23:32:41.418Z,18.00
2023-02-26T23:35:10.736Z,18.00
2023-02-26T23:37:39.059Z,18.00
2023-02-26T23:40:09.283Z,18.00
2023-02-26T23:42:37.536Z,17.90
2023-02-26T23:45:09.016Z,17.90
2023-02-26T23:47:37.219Z,17.90
2023-02-26T23:50:07.397Z,18.00
2023-02-26T23:52:36.630Z,17.90
2023-02-26T23:55:05.550Z,17.90
2023-02-26T23:57:33.840Z,17.90
